createdAt,value
2019-01-25T00:00:42.282Z,0.00
2019-01-25T00:01:42.170Z,0.00
2019-01-25T00:03:46.191Z,0.00
2019-01-25T00:04:46.080Z,0.00
2019-01-25T00:06:51.141Z,0.00
2019-01-25T00:07:51.022Z,0.00
2019-01-25T00:09:58.723Z,0.00
2019-01-25T00:10:54.941Z,0.00
2019-01-25T00:12:59.060Z,0.00
2019-01-25T00:13:58.950Z,0.00
2019-01-25T00:16:03.013Z,0.00
2019-01-25T00:17:03.061Z,0.00
2019-01-25T00:19:07.003Z,0.00
2019-01-25T00:20:07.034Z,0.00
2019-01-25T00:22:11.002Z,0.00
2019-01-25T00:23:10.892Z,0.00
2019-01-25T00:25:15.932Z,0.00
2019-01-25T00:26:15.821Z,0.00
2019-01-25T00:28:19.950Z,0.00
2019-01-25T00:29:19.854Z,0.00
2019-01-25T00:31:12.740Z,0.00
2019-01-25T00:32:12.701Z,0.00
2019-01-25T00:34:16.823Z,0.00
2019-01-25T00:35:16.702Z,0.00
2019-01-25T00:37:20.760Z,0.00
2019-01-25T00:38:20.807Z,0.00
2019-01-25T00:40:24.962Z,0.00
2019-01-25T00:41:24.746Z,0.00
2019-01-25T00:43:28.793Z,0.00
2019-01-25T00:44:28.832Z,0.00
2019-01-25T00:46:32.882Z,0.00
2019-01-25T00:47:32.762Z,0.00
2019-01-25T00:49:36.892Z,0.00
2019-01-25T00:50:36.779Z,0.00
2019-01-25T00:52:41.023Z,0.00
2019-01-25T00:53:40.881Z,0.00
2019-01-25T00:55:44.934Z,0.00
2019-01-25T00:56:44.812Z,0.00
2019-01-25T00:58:50.062Z,0.00
2019-01-25T00:59:49.851Z,0.00
2019-01-25T01:01:43.020Z,0.00
2019-01-25T01:02:42.811Z,0.00
2019-01-25T01:04:46.850Z,0.00
2019-01-25T01:05:46.822Z,0.00
2019-01-25T01:07:51.970Z,0.00
2019-01-25T01:08:50.843Z,0.00
2019-01-25T01:10:56.080Z,0.00
2019-01-25T01:11:55.881Z,0.00
2019-01-25T01:13:59.930Z,0.00
2019-01-25T01:14:59.971Z,0.00
2019-01-25T01:17:03.941Z,0.00
2019-01-25T01:18:04.092Z,0.00
2019-01-25T01:20:08.155Z,0.00
2019-01-25T01:21:07.912Z,0.00
2019-01-25T01:23:11.981Z,0.00
2019-01-25T01:24:11.932Z,0.00
2019-01-25T01:26:16.169Z,0.00
2019-01-25T01:27:16.133Z,0.00
2019-01-25T01:29:21.202Z,0.00
2019-01-25T01:30:20.982Z,0.00
2019-01-25T01:32:25.210Z,0.00
2019-01-25T01:33:25.003Z,0.00
2019-01-25T01:35:29.060Z,0.00
2019-01-25T01:36:29.012Z,0.00
2019-01-25T01:38:33.061Z,0.00
2019-01-25T01:39:33.037Z,0.00
2019-01-25T01:41:26.202Z,0.00
2019-01-25T01:42:25.993Z,0.00
2019-01-25T01:44:30.211Z,0.00
2019-01-25T01:45:30.002Z,0.00
2019-01-25T01:47:34.051Z,0.00
2019-01-25T01:48:34.211Z,0.00
2019-01-25T01:50:38.249Z,0.00
2019-01-25T01:51:38.042Z,0.00
2019-01-25T01:53:42.079Z,0.00
2019-01-25T01:54:42.231Z,0.00
2019-01-25T01:56:46.280Z,0.00
2019-01-25T01:57:46.061Z,0.00
2019-01-25T01:59:50.141Z,0.00
2019-01-25T02:00:50.265Z,0.00
2019-01-25T02:02:54.208Z,0.00
2019-01-25T02:03:54.087Z,0.00
2019-01-25T02:05:58.150Z,0.00
2019-01-25T02:06:58.103Z,0.00
2019-01-25T02:09:02.160Z,0.00
2019-01-25T02:10:02.201Z,0.00
2019-01-25T02:12:06.182Z,0.00
2019-01-25T02:13:06.210Z,0.00
2019-01-25T02:15:10.161Z,0.00
2019-01-25T02:16:10.054Z,0.00
2019-01-25T02:18:14.022Z,0.00
2019-01-25T02:19:14.042Z,0.00
2019-01-25T02:21:06.919Z,0.00
2019-01-25T02:22:06.821Z,0.00
2019-01-25T02:24:10.842Z,0.00
2019-01-25T02:25:10.731Z,0.00
2019-01-25T02:27:14.692Z,0.00
2019-01-25T02:28:14.721Z,0.00
2019-01-25T02:30:18.687Z,0.00
2019-01-25T02:31:18.550Z,0.00
2019-01-25T02:33:22.571Z,0.00
2019-01-25T02:34:22.540Z,0.00
2019-01-25T02:36:26.590Z,0.00
2019-01-25T02:37:26.486Z,0.00
2019-01-25T02:39:30.603Z,0.00
2019-01-25T02:40:38.726Z,0.00
2019-01-25T02:42:35.032Z,0.00
2019-01-25T02:43:34.923Z,0.00
2019-01-25T02:45:27.809Z,0.00
2019-01-25T02:46:27.770Z,0.00
2019-01-25T02:48:31.721Z,0.00
2019-01-25T02:49:31.673Z,0.00
2019-01-25T02:51:24.630Z,0.00
2019-01-25T02:52:24.523Z,0.00
2019-01-25T02:54:28.552Z,0.00
2019-01-25T02:55:28.431Z,0.00
2019-01-25T02:57:32.451Z,0.00
2019-01-25T02:58:32.343Z,0.00
2019-01-25T03:00:36.363Z,0.00
2019-01-25T03:01:36.253Z,0.00
2019-01-25T03:03:40.282Z,0.00
2019-01-25T03:04:40.161Z,0.00
2019-01-25T03:06:44.185Z,0.00
2019-01-25T03:07:44.071Z,0.00
2019-01-25T03:09:48.090Z,0.00
2019-01-25T03:10:47.983Z,0.00
2019-01-25T03:12:52.021Z,0.00
2019-01-25T03:13:51.893Z,0.00
2019-01-25T03:15:55.852Z,0.00
2019-01-25T03:16:55.882Z,0.00
2019-01-25T03:18:59.771Z,0.00
2019-01-25T03:19:59.711Z,0.00
2019-01-25T03:22:03.731Z,0.00
2019-01-25T03:23:03.620Z,0.00
2019-01-25T03:25:07.654Z,0.00
2019-01-25T03:26:07.530Z,0.00
2019-01-25T03:28:11.565Z,0.00
2019-01-25T03:29:11.440Z,0.00
2019-01-25T03:31:04.423Z,0.00
2019-01-25T03:32:04.303Z,0.00
2019-01-25T03:34:08.311Z,0.00
2019-01-25T03:35:08.200Z,0.00
2019-01-25T03:37:12.221Z,0.00
2019-01-25T03:38:12.111Z,0.00
2019-01-25T03:40:16.131Z,0.00
2019-01-25T03:41:16.099Z,0.00
2019-01-25T03:43:20.969Z,0.00
2019-01-25T03:44:20.871Z,0.00
2019-01-25T03:46:25.791Z,0.00
2019-01-25T03:47:25.689Z,0.00
2019-01-25T03:49:30.542Z,0.00
2019-01-25T03:50:30.420Z,0.00
2019-01-25T03:52:35.305Z,0.00
2019-01-25T03:53:35.319Z,0.00
2019-01-25T03:55:39.260Z,0.00
2019-01-25T03:56:39.160Z,0.00
2019-01-25T03:58:43.172Z,0.00
2019-01-25T03:59:43.070Z,0.00
2019-01-25T04:01:36.030Z,0.00
2019-01-25T04:02:35.921Z,0.00
2019-01-25T04:04:40.452Z,0.00
2019-01-25T04:05:40.352Z,0.00
2019-01-25T04:07:44.402Z,0.00
2019-01-25T04:08:44.261Z,0.00
2019-01-25T04:10:48.268Z,0.00
2019-01-25T04:11:48.164Z,0.00
2019-01-25T04:13:52.180Z,0.00
2019-01-25T04:14:52.152Z,0.00
2019-01-25T04:16:56.090Z,0.00
2019-01-25T04:17:55.979Z,0.00
2019-01-25T04:19:59.999Z,0.00
2019-01-25T04:20:59.892Z,0.00
2019-01-25T04:23:03.850Z,0.00
2019-01-25T04:24:03.878Z,0.00
2019-01-25T04:26:07.762Z,0.00
2019-01-25T04:27:07.710Z,0.00
2019-01-25T04:29:11.732Z,0.00
2019-01-25T04:30:11.638Z,0.00
2019-01-25T04:32:15.639Z,0.00
2019-01-25T04:33:15.545Z,0.00
2019-01-25T04:35:19.549Z,0.00
2019-01-25T04:36:19.439Z,0.00
2019-01-25T04:38:23.468Z,0.00
2019-01-25T04:39:23.350Z,0.00
2019-01-25T04:41:16.311Z,0.00
2019-01-25T04:42:16.201Z,0.00
2019-01-25T04:44:20.219Z,0.00
2019-01-25T04:45:20.111Z,0.00
2019-01-25T04:47:24.141Z,0.00
2019-01-25T04:48:24.101Z,0.00
2019-01-25T04:50:28.050Z,0.00
2019-01-25T04:51:27.938Z,0.00
2019-01-25T04:53:31.948Z,0.00
2019-01-25T04:54:31.840Z,0.00
2019-01-25T04:56:35.858Z,0.00
2019-01-25T04:57:35.759Z,0.00
2019-01-25T04:59:39.719Z,0.00
2019-01-25T05:00:39.659Z,0.00
2019-01-25T05:02:43.685Z,0.00
2019-01-25T05:03:43.573Z,0.00
2019-01-25T05:05:47.591Z,0.00
2019-01-25T05:06:47.481Z,0.00
2019-01-25T05:08:51.503Z,0.00
2019-01-25T05:09:51.390Z,0.00
2019-01-25T05:11:44.352Z,0.00
2019-01-25T05:12:44.255Z,0.00
2019-01-25T05:14:48.261Z,0.00
2019-01-25T05:15:48.152Z,0.00
2019-01-25T05:17:52.170Z,0.00
2019-01-25T05:18:52.070Z,0.00
2019-01-25T05:20:56.080Z,0.00
2019-01-25T05:21:55.982Z,0.00
2019-01-25T05:23:59.993Z,0.00
2019-01-25T05:24:59.882Z,0.00
2019-01-25T05:27:03.900Z,0.00
2019-01-25T05:28:03.802Z,0.00
2019-01-25T05:30:07.744Z,0.00
2019-01-25T05:31:07.783Z,0.00
2019-01-25T05:33:11.659Z,0.00
2019-01-25T05:34:11.690Z,0.00
2019-01-25T05:36:15.649Z,0.00
2019-01-25T05:37:15.522Z,0.00
2019-01-25T05:39:20.570Z,0.00
2019-01-25T05:40:19.433Z,0.00
2019-01-25T05:42:23.448Z,0.00
2019-01-25T05:43:23.346Z,0.00
2019-01-25T05:45:27.366Z,0.00
2019-01-25T05:46:27.251Z,0.00
2019-01-25T05:48:31.273Z,0.00
2019-01-25T05:49:31.161Z,0.00
2019-01-25T05:51:24.125Z,0.00
2019-01-25T05:52:24.020Z,0.00
2019-01-25T05:53:23.990Z,0.00
2019-01-25T05:54:23.951Z,0.00
2019-01-25T05:55:23.920Z,0.00
2019-01-25T05:56:23.885Z,0.00
2019-01-25T05:57:23.921Z,0.00
2019-01-25T05:58:23.872Z,0.00
2019-01-25T05:59:23.831Z,0.00
2019-01-25T06:00:23.751Z,0.00
2019-01-25T06:01:23.722Z,0.00
2019-01-25T06:02:24.771Z,0.00
2019-01-25T06:03:23.657Z,0.00
2019-01-25T06:04:23.650Z,0.00
2019-01-25T06:05:23.579Z,0.00
2019-01-25T06:06:23.550Z,0.00
2019-01-25T06:07:23.519Z,0.00
2019-01-25T06:08:23.572Z,0.00
2019-01-25T06:09:23.449Z,0.00
2019-01-25T06:10:23.490Z,0.00
2019-01-25T06:11:23.391Z,0.00
2019-01-25T06:12:23.361Z,0.00
2019-01-25T06:13:23.401Z,0.00
2019-01-25T06:14:23.292Z,0.00
2019-01-25T06:15:23.313Z,0.00
2019-01-25T06:16:23.220Z,0.00
2019-01-25T06:17:23.189Z,0.00
2019-01-25T06:18:23.162Z,0.00
2019-01-25T06:19:23.257Z,0.00
2019-01-25T06:20:23.095Z,0.00
2019-01-25T06:21:23.155Z,0.00
2019-01-25T06:22:23.040Z,0.00
2019-01-25T06:23:22.992Z,0.00
2019-01-25T06:24:23.060Z,0.00
2019-01-25T06:25:22.932Z,0.00
2019-01-25T06:26:22.970Z,0.00
2019-01-25T06:27:22.871Z,0.00
2019-01-25T06:28:22.879Z,0.00
2019-01-25T06:29:22.800Z,0.00
2019-01-25T06:30:22.789Z,0.00
2019-01-25T06:31:22.728Z,0.00
2019-01-25T06:32:22.804Z,0.00
2019-01-25T06:33:22.672Z,0.00
2019-01-25T06:34:22.632Z,0.00
2019-01-25T06:35:22.611Z,0.00
2019-01-25T06:36:22.632Z,0.00
2019-01-25T06:37:22.536Z,0.00
2019-01-25T06:38:22.543Z,0.00
2019-01-25T06:39:22.461Z,0.00
2019-01-25T06:40:22.432Z,0.00
2019-01-25T06:41:22.454Z,0.00
2019-01-25T06:42:22.372Z,0.00
2019-01-25T06:43:22.361Z,0.00
2019-01-25T06:44:22.300Z,0.00
2019-01-25T06:45:22.260Z,0.00
2019-01-25T06:46:22.230Z,0.00
2019-01-25T06:47:22.279Z,0.00
2019-01-25T06:48:22.172Z,0.00
2019-01-25T06:49:22.194Z,0.00
2019-01-25T06:50:22.099Z,0.00
2019-01-25T06:51:22.069Z,0.00
2019-01-25T06:52:22.109Z,0.00
2019-01-25T06:53:22.001Z,0.00
2019-01-25T06:54:22.021Z,0.00
2019-01-25T06:55:21.952Z,0.00
2019-01-25T06:56:21.899Z,0.00
2019-01-25T06:57:21.869Z,0.00
2019-01-25T06:58:21.941Z,4.00
2019-01-25T06:59:21.801Z,4.00
2019-01-25T07:00:21.854Z,0.00
2019-01-25T07:01:21.738Z,4.00
2019-01-25T07:02:21.699Z,0.00
2019-01-25T07:03:21.670Z,0.00
2019-01-25T07:04:21.681Z,4.00
2019-01-25T07:05:21.609Z,4.00
2019-01-25T07:06:21.590Z,8.00
2019-01-25T07:07:21.551Z,4.00
2019-01-25T07:08:21.599Z,4.00
2019-01-25T07:09:21.470Z,4.00
2019-01-25T07:10:21.508Z,8.00
2019-01-25T07:11:21.409Z,8.00
2019-01-25T07:12:22.453Z,8.00
2019-01-25T07:13:21.437Z,8.00
2019-01-25T07:14:21.312Z,12.00
2019-01-25T07:15:21.342Z,12.00
2019-01-25T07:16:21.238Z,12.00
2019-01-25T07:17:21.239Z,20.00
2019-01-25T07:18:21.182Z,24.00
2019-01-25T07:19:21.144Z,24.00
2019-01-25T07:20:21.170Z,28.00
2019-01-25T07:21:21.079Z,28.00
2019-01-25T07:22:21.072Z,28.00
2019-01-25T07:23:21.019Z,32.00
2019-01-25T07:24:21.001Z,36.00
2019-01-25T07:25:20.949Z,40.00
2019-01-25T07:26:21.020Z,48.00
2019-01-25T07:27:20.878Z,48.00
2019-01-25T07:28:20.901Z,52.00
2019-01-25T07:29:20.810Z,56.00
2019-01-25T07:30:20.791Z,64.00
2019-01-25T07:31:20.820Z,68.00
2019-01-25T07:32:20.724Z,76.00
2019-01-25T07:33:20.793Z,80.00
2019-01-25T07:34:20.673Z,84.00
2019-01-25T07:35:20.611Z,88.00
2019-01-25T07:36:20.580Z,92.00
2019-01-25T07:37:20.653Z,96.00
2019-01-25T07:38:20.522Z,96.00
2019-01-25T07:39:20.561Z,96.00
2019-01-25T07:40:20.475Z,104.00
2019-01-25T07:41:20.437Z,112.00
2019-01-25T07:42:20.492Z,108.00
2019-01-25T07:43:20.353Z,116.00
2019-01-25T07:44:20.671Z,116.00
2019-01-25T07:45:20.291Z,116.00
2019-01-25T07:46:20.252Z,112.00
2019-01-25T07:47:20.257Z,116.00
2019-01-25T07:48:20.251Z,116.00
2019-01-25T07:49:20.151Z,132.00
2019-01-25T07:50:20.224Z,148.00
2019-01-25T07:51:20.098Z,144.00
2019-01-25T07:52:20.129Z,132.00
2019-01-25T07:53:22.135Z,124.00
2019-01-25T07:54:20.070Z,144.00
2019-01-25T07:55:19.971Z,156.00
2019-01-25T07:56:19.951Z,152.00
2019-01-25T07:57:19.960Z,168.00
2019-01-25T07:58:19.862Z,184.00
2019-01-25T07:59:19.914Z,192.00
2019-01-25T08:00:19.781Z,200.00
2019-01-25T08:01:19.791Z,220.00
2019-01-25T08:02:19.791Z,240.00
2019-01-25T08:03:19.721Z,252.00
2019-01-25T08:04:19.700Z,244.00
2019-01-25T08:05:19.638Z,236.00
2019-01-25T08:06:19.617Z,260.00
2019-01-25T08:07:19.572Z,248.00
2019-01-25T08:08:19.532Z,204.00
2019-01-25T08:09:19.520Z,200.00
2019-01-25T08:10:19.451Z,220.00
2019-01-25T08:11:19.549Z,236.00
2019-01-25T08:12:19.421Z,248.00
2019-01-25T08:13:19.358Z,256.00
2019-01-25T08:14:19.351Z,240.00
2019-01-25T08:15:19.442Z,264.00
2019-01-25T08:16:19.287Z,344.00
2019-01-25T08:17:19.269Z,396.00
2019-01-25T08:18:19.194Z,416.00
2019-01-25T08:19:19.174Z,472.00
2019-01-25T08:20:19.195Z,476.00
2019-01-25T08:21:19.091Z,420.00
2019-01-25T08:22:19.092Z,420.00
2019-01-25T08:23:19.048Z,424.00
2019-01-25T08:24:19.001Z,416.00
2019-01-25T08:25:19.009Z,404.00
2019-01-25T08:26:18.931Z,432.00
2019-01-25T08:27:18.941Z,484.00
2019-01-25T08:28:18.886Z,484.00
2019-01-25T08:29:18.831Z,480.00
2019-01-25T08:30:18.801Z,472.00
2019-01-25T08:31:18.860Z,492.00
2019-01-25T08:32:18.731Z,516.00
2019-01-25T08:33:18.750Z,508.00
2019-01-25T08:34:18.671Z,476.00
2019-01-25T08:35:18.633Z,476.00
2019-01-25T08:36:18.691Z,508.00
2019-01-25T08:37:18.582Z,552.00
2019-01-25T08:38:18.605Z,564.00
2019-01-25T08:39:18.552Z,532.00
2019-01-25T08:40:18.485Z,536.00
2019-01-25T08:41:18.462Z,556.00
2019-01-25T08:42:18.547Z,580.00
2019-01-25T08:43:18.380Z,600.00
2019-01-25T08:44:18.412Z,608.00
2019-01-25T08:45:26.364Z,616.00
2019-01-25T08:47:22.821Z,648.00
2019-01-25T08:48:23.042Z,632.00
2019-01-25T08:50:26.758Z,604.00
2019-01-25T08:51:26.625Z,612.00
2019-01-25T08:53:30.570Z,652.00
2019-01-25T08:54:30.634Z,680.00
2019-01-25T08:56:34.708Z,716.00
2019-01-25T08:57:34.442Z,788.00
2019-01-25T08:59:38.390Z,860.00
2019-01-25T09:00:38.350Z,884.00
2019-01-25T09:02:42.371Z,920.00
2019-01-25T09:03:42.261Z,920.00
2019-01-25T09:05:46.281Z,892.00
2019-01-25T09:06:46.170Z,868.00
2019-01-25T09:08:50.131Z,840.00
2019-01-25T09:09:50.159Z,820.00
2019-01-25T09:11:43.065Z,824.00
2019-01-25T09:12:43.014Z,804.00
2019-01-25T09:14:47.982Z,808.00
2019-01-25T09:15:47.872Z,792.00
2019-01-25T09:17:51.904Z,736.00
2019-01-25T09:18:51.802Z,764.00
2019-01-25T09:20:55.815Z,732.00
2019-01-25T09:21:55.702Z,688.00
2019-01-25T09:24:00.747Z,656.00
2019-01-25T09:25:00.653Z,624.00
2019-01-25T09:27:04.661Z,596.00
2019-01-25T09:28:04.550Z,608.00
2019-01-25T09:30:08.572Z,680.00
2019-01-25T09:31:08.460Z,668.00
2019-01-25T09:33:12.481Z,812.00
2019-01-25T09:34:12.369Z,940.00
2019-01-25T09:35:12.352Z,1092.00
2019-01-25T09:36:12.313Z,1172.00
2019-01-25T09:37:12.371Z,1232.00
2019-01-25T09:38:12.240Z,1444.00
2019-01-25T09:39:12.281Z,1532.00
2019-01-25T09:40:12.184Z,1356.00
2019-01-25T09:41:12.190Z,1160.00
2019-01-25T09:42:12.111Z,980.00
2019-01-25T09:43:12.099Z,888.00
2019-01-25T09:44:12.052Z,796.00
2019-01-25T09:45:12.010Z,828.00
2019-01-25T09:46:11.982Z,1004.00
2019-01-25T09:47:12.029Z,984.00
2019-01-25T09:48:11.910Z,1088.00
2019-01-25T09:49:11.952Z,1140.00
2019-01-25T09:50:11.852Z,1140.00
2019-01-25T09:51:11.815Z,1092.00
2019-01-25T09:52:11.861Z,1040.00
2019-01-25T09:53:11.752Z,892.00
2019-01-25T09:54:11.770Z,916.00
2019-01-25T09:55:11.691Z,956.00
2019-01-25T09:56:11.655Z,848.00
2019-01-25T09:57:11.619Z,828.00
2019-01-25T09:58:11.700Z,908.00
2019-01-25T09:59:11.563Z,972.00
2019-01-25T10:00:11.610Z,1072.00
2019-01-25T10:01:11.493Z,1064.00
2019-01-25T10:02:11.531Z,1028.00
2019-01-25T10:03:11.436Z,1068.00
2019-01-25T10:04:11.431Z,1160.00
2019-01-25T10:05:11.362Z,1060.00
2019-01-25T10:06:11.340Z,1116.00
2019-01-25T10:07:11.349Z,1248.00
2019-01-25T10:08:11.275Z,1240.00
2019-01-25T10:09:11.259Z,1324.00
2019-01-25T10:10:11.190Z,1304.00
2019-01-25T10:11:11.172Z,1216.00
2019-01-25T10:12:11.142Z,1172.00
2019-01-25T10:13:11.203Z,1136.00
2019-01-25T10:14:11.061Z,1092.00
2019-01-25T10:15:11.110Z,992.00
2019-01-25T10:16:11.012Z,832.00
2019-01-25T10:17:11.011Z,812.00
2019-01-25T10:18:10.941Z,736.00
2019-01-25T10:19:10.921Z,772.00
2019-01-25T10:20:10.870Z,944.00
2019-01-25T10:21:10.944Z,1020.00
2019-01-25T10:22:10.811Z,976.00
2019-01-25T10:23:10.771Z,964.00
2019-01-25T10:24:10.743Z,972.00
2019-01-25T10:25:10.760Z,960.00
2019-01-25T10:26:10.672Z,968.00
2019-01-25T10:27:10.670Z,1024.00
2019-01-25T10:28:10.610Z,1136.00
2019-01-25T10:29:10.591Z,1268.00
2019-01-25T10:30:10.591Z,1268.00
2019-01-25T10:31:10.511Z,1284.00
2019-01-25T10:32:10.501Z,1292.00
2019-01-25T10:33:10.451Z,1308.00
2019-01-25T10:34:10.410Z,1228.00
2019-01-25T10:35:10.382Z,1248.00
2019-01-25T10:36:10.443Z,1248.00
2019-01-25T10:37:10.320Z,1356.00
2019-01-25T10:38:10.340Z,1488.00
2019-01-25T10:39:10.253Z,1604.00
2019-01-25T10:40:10.264Z,1600.00
2019-01-25T10:41:10.191Z,1572.00
2019-01-25T10:42:10.284Z,1564.00
2019-01-25T10:43:10.131Z,1544.00
2019-01-25T10:44:10.181Z,1528.00
2019-01-25T10:45:10.081Z,1488.00
2019-01-25T10:46:10.032Z,1552.00
2019-01-25T10:47:10.102Z,1524.00
2019-01-25T10:48:09.962Z,1504.00
2019-01-25T10:49:10.012Z,1492.00
2019-01-25T10:50:09.900Z,1468.00
2019-01-25T10:51:09.920Z,1444.00
2019-01-25T10:52:09.841Z,1392.00
2019-01-25T10:53:09.847Z,1404.00
2019-01-25T10:54:09.776Z,1412.00
2019-01-25T10:55:09.844Z,1316.00
2019-01-25T10:56:09.713Z,1416.00
2019-01-25T10:57:09.763Z,1460.00
2019-01-25T10:58:09.640Z,1436.00
2019-01-25T10:59:09.681Z,1356.00
2019-01-25T11:00:09.571Z,1384.00
2019-01-25T11:01:09.543Z,1380.00
2019-01-25T11:02:09.511Z,1432.00
2019-01-25T11:03:09.592Z,1468.00
2019-01-25T11:04:11.600Z,1424.00
2019-01-25T11:05:09.512Z,1444.00
2019-01-25T11:06:09.381Z,1504.00
2019-01-25T11:07:09.349Z,1588.00
2019-01-25T11:08:09.428Z,1616.00
2019-01-25T11:09:09.291Z,1740.00
2019-01-25T11:10:09.342Z,1812.00
2019-01-25T11:11:09.232Z,1832.00
2019-01-25T11:12:09.189Z,1608.00
2019-01-25T11:13:09.161Z,1684.00
2019-01-25T11:14:09.161Z,1776.00
2019-01-25T11:15:09.102Z,1816.00
2019-01-25T11:16:11.900Z,1776.00
2019-01-25T11:17:09.033Z,1884.00
2019-01-25T11:18:09.093Z,2148.00
2019-01-25T11:19:08.961Z,2252.00
2019-01-25T11:20:09.002Z,2132.00
2019-01-25T11:21:08.909Z,1988.00
2019-01-25T11:22:08.910Z,1800.00
2019-01-25T11:23:08.920Z,1636.00
2019-01-25T11:24:08.812Z,1496.00
2019-01-25T11:25:08.835Z,1476.00
2019-01-25T11:26:08.740Z,1568.00
2019-01-25T11:27:08.741Z,1536.00
2019-01-25T11:28:08.682Z,1716.00
2019-01-25T11:29:08.758Z,1688.00
2019-01-25T11:30:08.631Z,1500.00
2019-01-25T11:31:08.672Z,1500.00
2019-01-25T11:32:08.548Z,1500.00
2019-01-25T11:33:08.581Z,1856.00
2019-01-25T11:34:08.581Z,2100.00
2019-01-25T11:35:08.463Z,1672.00
2019-01-25T11:36:08.491Z,2016.00
2019-01-25T11:37:08.391Z,2244.00
2019-01-25T11:38:08.411Z,2316.00
2019-01-25T11:39:08.329Z,2096.00
2019-01-25T11:40:08.321Z,2428.00
2019-01-25T11:41:08.261Z,2352.00
2019-01-25T11:42:08.330Z,2100.00
2019-01-25T11:43:09.155Z,2088.00
2019-01-25T11:44:08.240Z,2160.00
2019-01-25T11:45:08.256Z,2404.00
2019-01-25T11:46:08.103Z,2480.00
2019-01-25T11:47:08.162Z,2628.00
2019-01-25T11:48:08.041Z,3028.00
2019-01-25T11:49:08.101Z,2904.00
2019-01-25T11:50:07.983Z,2916.00
2019-01-25T11:51:07.952Z,2664.00
2019-01-25T11:52:08.001Z,2884.00
2019-01-25T11:53:07.882Z,4976.00
2019-01-25T11:54:07.910Z,3784.00
2019-01-25T11:55:07.823Z,3532.00
2019-01-25T11:56:07.784Z,3444.00
2019-01-25T11:57:07.751Z,3556.00
2019-01-25T11:58:07.835Z,3536.00
2019-01-25T11:59:07.691Z,2696.00
2019-01-25T12:00:07.743Z,2368.00
2019-01-25T12:01:07.631Z,2388.00
2019-01-25T12:02:07.602Z,3000.00
2019-01-25T12:03:07.663Z,3592.00
2019-01-25T12:04:07.532Z,2784.00
2019-01-25T12:05:07.576Z,2568.00
2019-01-25T12:06:07.484Z,2824.00
2019-01-25T12:07:07.442Z,2784.00
2019-01-25T12:08:07.411Z,2584.00
2019-01-25T12:09:07.411Z,2396.00
2019-01-25T12:10:07.353Z,2376.00
2019-01-25T12:11:07.413Z,2316.00
2019-01-25T12:12:07.283Z,2120.00
2019-01-25T12:13:07.250Z,1884.00
2019-01-25T12:14:07.231Z,1756.00
2019-01-25T12:15:07.184Z,1628.00
2019-01-25T12:16:07.247Z,1688.00
2019-01-25T12:17:07.121Z,1788.00
2019-01-25T12:18:07.092Z,2188.00
2019-01-25T12:19:07.061Z,2588.00
2019-01-25T12:20:07.063Z,3096.00
2019-01-25T12:21:06.990Z,3536.00
2019-01-25T12:22:06.992Z,3848.00
2019-01-25T12:23:06.934Z,4176.00
2019-01-25T12:24:06.899Z,3616.00
2019-01-25T12:25:06.891Z,3220.00
2019-01-25T12:26:06.833Z,3400.00
2019-01-25T12:27:06.910Z,3528.00
2019-01-25T12:28:06.770Z,3792.00
2019-01-25T12:29:06.740Z,3896.00
2019-01-25T12:30:06.713Z,3832.00
2019-01-25T12:31:06.733Z,3764.00
2019-01-25T12:32:06.652Z,3604.00
2019-01-25T12:33:06.643Z,3668.00
2019-01-25T12:34:06.582Z,3684.00
2019-01-25T12:35:07.536Z,3776.00
2019-01-25T12:36:07.591Z,3892.00
2019-01-25T12:37:06.491Z,4116.00
2019-01-25T12:38:06.471Z,4112.00
2019-01-25T12:39:06.431Z,4188.00
2019-01-25T12:40:06.528Z,4124.00
2019-01-25T12:41:06.362Z,4208.00
2019-01-25T12:42:06.412Z,3736.00
2019-01-25T12:43:06.302Z,3332.00
2019-01-25T12:44:06.359Z,3076.00
2019-01-25T12:45:06.241Z,2920.00
2019-01-25T12:46:06.209Z,2784.00
2019-01-25T12:47:06.182Z,2760.00
2019-01-25T12:48:06.241Z,2824.00
2019-01-25T12:49:06.111Z,2992.00
2019-01-25T12:50:06.150Z,3264.00
2019-01-25T12:51:06.054Z,3368.00
2019-01-25T12:52:08.265Z,3392.00
2019-01-25T12:53:05.989Z,3652.00
2019-01-25T12:54:05.970Z,3816.00
2019-01-25T12:55:05.932Z,3960.00
2019-01-25T12:56:05.990Z,3944.00
2019-01-25T12:57:05.881Z,3792.00
2019-01-25T12:58:05.900Z,3588.00
2019-01-25T12:59:05.801Z,3384.00
2019-01-25T13:00:05.811Z,3076.00
2019-01-25T13:01:06.218Z,2804.00
2019-01-25T13:02:05.724Z,2548.00
2019-01-25T13:03:05.680Z,2268.00
2019-01-25T13:04:05.743Z,2152.00
2019-01-25T13:05:05.625Z,2048.00
2019-01-25T13:06:05.650Z,2024.00
2019-01-25T13:07:05.570Z,2020.00
2019-01-25T13:08:05.531Z,2000.00
2019-01-25T13:09:05.490Z,1984.00
2019-01-25T13:10:05.571Z,1916.00
2019-01-25T13:11:05.444Z,1868.00
2019-01-25T13:12:05.489Z,1804.00
2019-01-25T13:13:05.369Z,1664.00
2019-01-25T13:14:05.411Z,1684.00
2019-01-25T13:15:05.314Z,1640.00
2019-01-25T13:16:05.321Z,1552.00
2019-01-25T13:17:05.249Z,1460.00
2019-01-25T13:18:05.322Z,1448.00
2019-01-25T13:19:05.229Z,1496.00
2019-01-25T13:20:05.162Z,1552.00
2019-01-25T13:21:05.151Z,1628.00
2019-01-25T13:22:05.092Z,1716.00
2019-01-25T13:23:05.160Z,1792.00
2019-01-25T13:24:05.041Z,1868.00
2019-01-25T13:25:05.000Z,1880.00
2019-01-25T13:26:05.069Z,1872.00
2019-01-25T13:27:04.938Z,1804.00
2019-01-25T13:28:04.978Z,1752.00
2019-01-25T13:29:04.873Z,1788.00
2019-01-25T13:30:04.841Z,1832.00
2019-01-25T13:31:04.812Z,1884.00
2019-01-25T13:32:04.811Z,1972.00
2019-01-25T13:33:04.750Z,2056.00
2019-01-25T13:34:04.831Z,2116.00
2019-01-25T13:35:04.691Z,2132.00
2019-01-25T13:36:04.660Z,2128.00
2019-01-25T13:37:04.642Z,2136.00
2019-01-25T13:38:04.589Z,2116.00
2019-01-25T13:39:06.140Z,2088.00
2019-01-25T13:40:04.533Z,2092.00
2019-01-25T13:41:04.511Z,2080.00
2019-01-25T13:42:04.471Z,2020.00
2019-01-25T13:43:04.480Z,1952.00
2019-01-25T13:44:04.410Z,1892.00
2019-01-25T13:45:04.490Z,1808.00
2019-01-25T13:46:04.350Z,1720.00
2019-01-25T13:47:04.319Z,1640.00
2019-01-25T13:48:04.311Z,1580.00
2019-01-25T13:49:04.251Z,1512.00
2019-01-25T13:50:05.510Z,1456.00
2019-01-25T13:51:04.189Z,1392.00
2019-01-25T13:52:04.161Z,1320.00
2019-01-25T13:53:04.131Z,1284.00
2019-01-25T13:54:04.151Z,1268.00
2019-01-25T13:55:04.070Z,1260.00
2019-01-25T13:56:04.051Z,1240.00
2019-01-25T13:57:04.000Z,1220.00
2019-01-25T13:58:03.969Z,1208.00
2019-01-25T13:59:03.970Z,1212.00
2019-01-25T14:00:03.912Z,1200.00
2019-01-25T14:01:03.991Z,1196.00
2019-01-25T14:02:03.850Z,1172.00
2019-01-25T14:03:03.815Z,1168.00
2019-01-25T14:04:03.782Z,1164.00
2019-01-25T14:05:03.821Z,1156.00
2019-01-25T14:06:03.723Z,1144.00
2019-01-25T14:07:03.722Z,1128.00
2019-01-25T14:08:03.666Z,1112.00
2019-01-25T14:09:03.620Z,1096.00
2019-01-25T14:10:03.641Z,1068.00
2019-01-25T14:11:03.570Z,1040.00
2019-01-25T14:12:03.549Z,1020.00
2019-01-25T14:13:03.502Z,1008.00
2019-01-25T14:14:03.570Z,992.00
2019-01-25T14:15:03.439Z,984.00
2019-01-25T14:16:03.482Z,980.00
2019-01-25T14:17:03.370Z,956.00
2019-01-25T14:18:03.390Z,936.00
2019-01-25T14:19:03.312Z,924.00
2019-01-25T14:20:03.291Z,904.00
2019-01-25T14:21:03.317Z,904.00
2019-01-25T14:22:03.221Z,912.00
2019-01-25T14:23:03.222Z,928.00
2019-01-25T14:24:03.161Z,944.00
2019-01-25T14:25:03.230Z,964.00
2019-01-25T14:26:03.092Z,976.00
2019-01-25T14:27:03.150Z,980.00
2019-01-25T14:28:03.034Z,980.00
2019-01-25T14:29:03.064Z,984.00
2019-01-25T14:30:02.973Z,984.00
2019-01-25T14:31:02.941Z,988.00
2019-01-25T14:32:02.926Z,1016.00
2019-01-25T14:33:02.992Z,1052.00
2019-01-25T14:34:02.842Z,1068.00
2019-01-25T14:35:02.900Z,1080.00
2019-01-25T14:36:02.785Z,1088.00
2019-01-25T14:37:02.751Z,1080.00
2019-01-25T14:38:02.811Z,1064.00
2019-01-25T14:39:02.691Z,1052.00
2019-01-25T14:40:02.730Z,1040.00
2019-01-25T14:41:02.624Z,1028.00
2019-01-25T14:42:02.601Z,1012.00
2019-01-25T14:43:03.002Z,976.00
2019-01-25T14:44:02.545Z,936.00
2019-01-25T14:45:02.571Z,884.00
2019-01-25T14:46:02.459Z,828.00
2019-01-25T14:47:02.471Z,764.00
2019-01-25T14:48:02.479Z,716.00
2019-01-25T14:49:09.901Z,692.00
2019-01-25T14:50:55.491Z,652.00
2019-01-25T14:51:55.370Z,632.00
2019-01-25T14:53:59.320Z,596.00
2019-01-25T14:54:59.360Z,580.00
2019-01-25T14:57:03.309Z,552.00
2019-01-25T14:58:03.211Z,536.00
2019-01-25T15:00:07.818Z,504.00
2019-01-25T15:01:07.201Z,488.00
2019-01-25T15:03:11.130Z,456.00